createdAt,value
2023-03-12T00:01:22.472Z,5.80
2023-03-12T00:03:50.555Z,5.00
2023-03-12T00:06:19.342Z,6.22
2023-03-12T00:08:47.958Z,4.50
2023-03-12T00:11:20.987Z,4.82
2023-03-12T00:13:53.899Z,4.30
2023-03-12T00:16:22.642Z,5.05
2023-03-12T00:18:51.849Z,5.28
2023-03-12T00:21:21.254Z,4.95
2023-03-12T00:23:49.401Z,4.30
2023-03-12T00:26:18.541Z,3.58
2023-03-12T00:28:47.804Z,4.30
2023-03-12T00:31:20.161Z,5.93
2023-03-12T00:33:51.612Z,4.45
2023-03-12T00:36:21.525Z,3.92
2023-03-12T00:38:49.390Z,3.22
2023-03-12T00:41:17.059Z,3.53
2023-03-12T00:43:44.575Z,4.07
2023-03-12T00:46:12.116Z,5.65
2023-03-12T00:48:39.738Z,4.00
2023-03-12T00:51:07.891Z,4.13
2023-03-12T00:53:36.260Z,4.82
2023-03-12T00:56:04.756Z,3.97
2023-03-12T00:58:32.395Z,3.65
2023-03-12T01:01:00.807Z,4.90
2023-03-12T01:03:28.281Z,4.93
2023-03-12T01:05:55.775Z,6.32
2023-03-12T01:08:23.799Z,3.53
2023-03-12T01:10:51.719Z,5.03
2023-03-12T01:13:19.252Z,5.90
2023-03-12T01:15:46.690Z,3.60
2023-03-12T01:18:14.548Z,4.20
2023-03-12T01:20:42.266Z,5.35
2023-03-12T01:23:10.180Z,5.28
2023-03-12T01:25:38.181Z,4.40
2023-03-12T01:28:05.893Z,5.40
2023-03-12T01:30:33.434Z,6.30
2023-03-12T01:33:00.913Z,5.78
2023-03-12T01:35:28.587Z,6.68
2023-03-12T01:37:56.525Z,5.85
2023-03-12T01:40:29.074Z,6.32
2023-03-12T01:42:58.790Z,5.80
2023-03-12T01:45:57.359Z,6.95
2023-03-12T01:48:27.401Z,8.80
2023-03-12T01:50:55.392Z,8.20
2023-03-12T01:53:23.302Z,5.03
2023-03-12T01:55:51.452Z,5.20
2023-03-12T01:58:19.678Z,4.82
2023-03-12T02:00:47.251Z,5.75
2023-03-12T02:03:15.822Z,5.63
2023-03-12T02:05:53.324Z,6.20
2023-03-12T02:08:22.916Z,6.32
2023-03-12T02:10:51.022Z,6.57
2023-03-12T02:13:18.987Z,4.72
2023-03-12T02:15:48.785Z,5.50
2023-03-12T02:18:19.211Z,6.72
2023-03-12T02:21:04.060Z,5.18
2023-03-12T02:24:04.507Z,5.70
2023-03-12T02:26:35.777Z,5.57
2023-03-12T02:29:04.354Z,5.80
2023-03-12T02:31:38.694Z,5.22
2023-03-12T02:34:08.649Z,6.22
2023-03-12T02:36:37.209Z,7.72
2023-03-12T02:39:06.059Z,5.80
2023-03-12T02:41:38.150Z,4.68
2023-03-12T02:44:16.936Z,7.13
2023-03-12T02:46:48.357Z,5.63
2023-03-12T02:49:17.684Z,7.53
2023-03-12T02:51:46.202Z,5.40
2023-03-12T02:54:15.801Z,4.72
2023-03-12T02:56:43.610Z,6.05
2023-03-12T02:59:13.388Z,5.97
2023-03-12T03:01:43.205Z,7.57
2023-03-12T03:04:38.037Z,3.90
2023-03-12T03:07:05.769Z,4.50
2023-03-12T03:12:27.635Z,4.07
2023-03-12T03:14:55.153Z,5.63
2023-03-12T03:17:25.937Z,3.97
2023-03-12T03:19:53.752Z,4.65
2023-03-12T03:22:22.741Z,2.67
2023-03-12T03:24:50.294Z,3.72
2023-03-12T03:27:17.719Z,3.88
2023-03-12T03:29:46.550Z,2.75
2023-03-12T03:32:14.322Z,2.47
2023-03-12T03:34:41.843Z,2.53
2023-03-12T03:37:09.421Z,3.67
2023-03-12T03:39:37.403Z,2.20
2023-03-12T03:42:05.287Z,3.25
2023-03-12T03:44:34.228Z,3.70
2023-03-12T03:47:02.560Z,2.33
2023-03-12T03:49:30.057Z,2.50
2023-03-12T03:51:57.568Z,2.88
2023-03-12T03:54:31.797Z,3.72
2023-03-12T03:57:00.777Z,2.38
2023-03-12T03:59:28.708Z,3.22
2023-03-12T04:01:56.209Z,2.85
2023-03-12T04:04:24.289Z,3.40
2023-03-12T04:06:52.063Z,2.30
2023-03-12T04:09:19.777Z,4.85
2023-03-12T04:11:47.419Z,3.85
2023-03-12T04:14:15.658Z,2.72
2023-03-12T04:16:45.337Z,2.40
2023-03-12T04:19:12.953Z,2.17
2023-03-12T04:21:40.732Z,2.38
2023-03-12T04:24:14.720Z,3.33
2023-03-12T04:26:42.750Z,2.72
2023-03-12T04:29:10.614Z,3.33
2023-03-12T04:31:38.347Z,2.83
2023-03-12T04:34:05.924Z,2.05
2023-03-12T04:36:33.501Z,3.47
2023-03-12T04:39:01.706Z,2.20
2023-03-12T04:41:36.793Z,2.55
2023-03-12T04:44:12.201Z,2.67
2023-03-12T04:46:41.692Z,3.05
2023-03-12T04:49:11.211Z,3.78
2023-03-12T04:51:39.969Z,4.45
2023-03-12T04:54:08.093Z,2.63
2023-03-12T04:56:36.928Z,2.85
2023-03-12T04:59:05.226Z,2.85
2023-03-12T05:01:35.432Z,2.42
2023-03-12T05:04:07.939Z,3.83
2023-03-12T05:06:35.877Z,2.90
2023-03-12T05:09:04.041Z,2.45
2023-03-12T05:11:31.633Z,3.83
2023-03-12T05:13:59.133Z,3.00
2023-03-12T05:16:26.903Z,2.38
2023-03-12T05:18:54.561Z,2.97
2023-03-12T05:21:24.226Z,2.63
2023-03-12T05:23:54.909Z,3.67
2023-03-12T05:26:26.385Z,2.58
2023-03-12T05:29:01.067Z,3.03
2023-03-12T05:31:33.244Z,2.25
2023-03-12T05:34:03.106Z,4.20
2023-03-12T05:36:31.925Z,4.13
2023-03-12T05:39:01.438Z,3.97
2023-03-12T05:41:32.342Z,2.30
2023-03-12T05:44:06.311Z,3.65
2023-03-12T05:46:34.000Z,2.47
2023-03-12T05:49:01.631Z,3.17
2023-03-12T05:51:29.397Z,2.53
2023-03-12T05:53:57.388Z,3.72
2023-03-12T05:56:25.484Z,3.95
2023-03-12T05:58:57.728Z,3.45
2023-03-12T06:01:28.757Z,3.05
2023-03-12T06:03:58.626Z,3.22
2023-03-12T06:06:26.891Z,5.13
2023-03-12T06:08:55.027Z,3.53
2023-03-12T06:11:23.700Z,3.40
2023-03-12T06:13:51.378Z,4.70
2023-03-12T06:16:22.078Z,2.30
2023-03-12T06:18:54.179Z,3.00
2023-03-12T06:21:24.950Z,2.47
2023-03-12T06:23:54.515Z,2.90
2023-03-12T06:26:28.120Z,2.88
2023-03-12T06:28:55.833Z,2.97
2023-03-12T06:31:23.476Z,5.93
2023-03-12T06:33:51.842Z,3.85
2023-03-12T06:36:19.924Z,3.08
2023-03-12T06:38:47.421Z,2.40
2023-03-12T06:41:17.614Z,3.80
2023-03-12T06:43:46.078Z,3.17
2023-03-12T06:46:22.061Z,3.83
2023-03-12T06:48:49.814Z,4.50
2023-03-12T06:51:17.863Z,3.75
2023-03-12T06:53:46.656Z,3.80
2023-03-12T06:56:14.297Z,3.70
2023-03-12T06:58:41.892Z,3.08
2023-03-12T07:01:10.076Z,4.43
2023-03-12T07:03:37.646Z,5.22
2023-03-12T07:06:05.716Z,7.15
2023-03-12T07:08:33.196Z,3.28
2023-03-12T07:11:01.905Z,3.10
2023-03-12T07:13:31.722Z,3.22
2023-03-12T07:16:02.493Z,3.55
2023-03-12T07:18:33.266Z,3.33
2023-03-12T07:21:00.943Z,3.08
2023-03-12T07:23:28.725Z,4.32
2023-03-12T07:25:56.254Z,5.75
2023-03-12T07:28:23.937Z,2.97
2023-03-12T07:30:51.520Z,2.75
2023-03-12T07:33:21.958Z,3.10
2023-03-12T07:36:22.416Z,2.97
2023-03-12T07:38:51.597Z,3.38
2023-03-12T07:41:19.279Z,3.67
2023-03-12T07:43:47.306Z,3.35
2023-03-12T07:46:15.732Z,3.08
2023-03-12T07:48:46.450Z,2.60
2023-03-12T08:24:54.807Z,2.60
2023-03-12T08:27:22.464Z,4.82
2023-03-12T08:29:51.260Z,3.03
2023-03-12T08:32:23.631Z,4.40
2023-03-12T08:35:07.063Z,4.45
2023-03-12T08:37:41.973Z,2.75
2023-03-12T08:40:13.617Z,2.83
2023-03-12T08:42:43.028Z,4.88
2023-03-12T08:45:12.341Z,2.63
2023-03-12T08:47:41.834Z,3.05
2023-03-12T08:50:16.659Z,2.72
2023-03-12T08:52:48.735Z,2.88
2023-03-12T08:55:46.388Z,2.97
2023-03-12T08:58:16.242Z,3.80
2023-03-12T09:00:46.681Z,3.08
2023-03-12T09:03:15.341Z,3.10
2023-03-12T09:05:43.942Z,3.33
2023-03-12T09:09:12.614Z,2.88
2023-03-12T09:12:14.692Z,2.88
2023-03-12T09:15:02.972Z,2.35
2023-03-12T09:17:34.768Z,3.40
2023-03-12T09:20:02.430Z,2.53
2023-03-12T10:06:15.531Z,2.00
2023-03-12T10:09:35.372Z,3.47
2023-03-12T10:12:26.106Z,2.10
2023-03-12T10:15:31.234Z,2.47
2023-03-12T10:18:10.367Z,3.88
2023-03-12T10:20:47.343Z,2.63
2023-03-12T10:23:42.493Z,2.30
2023-03-12T10:26:19.127Z,3.47
2023-03-12T10:28:53.880Z,3.40
2023-03-12T10:31:29.615Z,4.93
2023-03-12T10:34:00.960Z,3.40
2023-03-12T10:36:38.317Z,3.85
2023-03-12T10:39:15.631Z,5.03
2023-03-12T10:41:45.654Z,2.35
2023-03-12T10:44:25.112Z,3.05
2023-03-12T10:51:29.451Z,3.85
2023-03-12T10:53:56.972Z,2.63
2023-03-12T10:56:24.672Z,8.48
2023-03-12T11:08:03.283Z,2.17
2023-03-12T11:10:45.421Z,3.58
2023-03-12T11:13:42.157Z,2.92
2023-03-12T11:16:15.429Z,2.45
2023-03-12T11:19:13.306Z,2.80
2023-03-12T11:21:54.462Z,3.28
2023-03-12T11:24:21.956Z,2.55
2023-03-12T11:26:59.381Z,4.13
2023-03-12T11:29:33.158Z,3.03
2023-03-12T11:41:27.619Z,3.40
2023-03-12T11:44:19.348Z,3.58
2023-03-12T11:46:55.258Z,2.53
2023-03-12T12:08:11.738Z,2.28
2023-03-12T12:20:20.247Z,2.58
2023-03-12T12:23:12.567Z,4.03
2023-03-12T12:30:16.085Z,3.10
2023-03-12T12:33:54.793Z,3.10
2023-03-12T12:42:04.461Z,4.03
2023-03-12T13:26:34.976Z,4.63
2023-03-12T15:41:40.704Z,5.50
2023-03-12T15:44:32.486Z,5.93
2023-03-12T15:47:41.495Z,3.75
2023-03-12T15:51:26.881Z,3.63
2023-03-12T15:54:08.593Z,3.90
2023-03-12T15:57:31.987Z,6.85
2023-03-12T16:00:19.873Z,5.43
2023-03-12T16:02:50.734Z,4.00
2023-03-12T16:05:20.348Z,7.40
2023-03-12T16:07:49.590Z,4.57
2023-03-12T16:10:20.285Z,5.28
2023-03-12T16:13:00.946Z,4.10
2023-03-12T16:15:38.036Z,3.30
2023-03-12T16:18:24.438Z,3.22
2023-03-12T16:21:10.781Z,3.92
2023-03-12T16:23:47.402Z,3.50
2023-03-12T16:26:51.273Z,4.97
2023-03-12T16:29:35.165Z,4.88
2023-03-12T16:32:13.867Z,4.40
2023-03-12T16:34:48.442Z,7.00
2023-03-12T16:37:29.159Z,4.85
2023-03-12T16:39:57.018Z,6.88
2023-03-12T16:42:24.750Z,5.20
2023-03-12T16:44:52.663Z,5.25
2023-03-12T16:47:25.194Z,4.10
2023-03-12T16:49:57.824Z,4.45
2023-03-12T16:55:04.525Z,7.03
2023-03-12T16:57:38.764Z,8.20
2023-03-12T17:02:48.307Z,7.13
2023-03-12T17:05:31.849Z,3.92
2023-03-12T17:08:02.860Z,3.80
2023-03-12T17:10:36.555Z,4.05
2023-03-12T17:13:06.797Z,4.40
2023-03-12T17:15:37.517Z,5.55
2023-03-12T17:18:09.468Z,4.53
2023-03-12T17:20:40.066Z,7.03
2023-03-12T17:23:10.405Z,3.35
2023-03-12T17:25:44.289Z,9.57
2023-03-12T17:28:22.674Z,7.00
2023-03-12T17:30:56.854Z,4.50
2023-03-12T17:33:28.753Z,4.57
2023-03-12T17:36:06.868Z,6.45
2023-03-12T17:38:42.246Z,3.50
2023-03-12T17:41:25.161Z,4.50
2023-03-12T17:43:55.330Z,7.03
2023-03-12T17:46:24.934Z,7.50
2023-03-12T17:48:55.080Z,5.38
2023-03-12T17:51:49.050Z,6.18
2023-03-12T17:54:26.039Z,5.13
2023-03-12T17:56:57.401Z,3.85
2023-03-12T17:59:26.005Z,6.22
2023-03-12T18:01:56.683Z,5.80
2023-03-12T18:07:43.959Z,7.18
2023-03-12T18:10:12.191Z,5.88
2023-03-12T18:12:40.440Z,4.60
2023-03-12T18:15:11.070Z,7.85
2023-03-12T18:17:46.792Z,6.72
2023-03-12T18:20:28.711Z,6.28
2023-03-12T18:23:12.383Z,6.82
2023-03-12T18:25:40.925Z,5.93
2023-03-12T18:28:15.405Z,6.57
2023-03-12T18:30:53.926Z,6.05
2023-03-12T18:33:27.774Z,6.95
2023-03-12T18:36:01.766Z,6.00
2023-03-12T18:38:33.676Z,8.40
2023-03-12T18:41:08.910Z,6.93
2023-03-12T18:43:40.070Z,5.13
2023-03-12T18:46:17.851Z,8.60
2023-03-12T18:49:00.716Z,5.55
2023-03-12T18:51:32.032Z,7.07
2023-03-12T18:54:06.911Z,7.85
2023-03-12T18:56:38.778Z,6.63
2023-03-12T18:59:59.762Z,8.70
2023-03-12T19:02:30.320Z,13.75
2023-03-12T19:05:03.297Z,11.35
2023-03-12T19:07:39.563Z,9.80
2023-03-12T19:10:23.574Z,8.48
2023-03-12T19:12:56.385Z,7.40
2023-03-12T19:15:27.235Z,7.28
2023-03-12T19:20:41.456Z,7.15
2023-03-12T19:23:09.222Z,8.90
2023-03-12T19:25:37.635Z,7.20
2023-03-12T19:28:06.486Z,5.40
2023-03-12T19:30:34.136Z,6.68
2023-03-12T19:33:01.976Z,7.65
2023-03-12T19:35:29.928Z,6.72
2023-03-12T19:37:59.682Z,6.65
2023-03-12T19:40:30.784Z,6.68
2023-03-12T19:42:58.641Z,8.85
2023-03-12T19:45:26.670Z,7.18
2023-03-12T19:47:54.618Z,6.18
2023-03-12T19:50:31.862Z,7.65
2023-03-12T19:53:02.094Z,6.20
2023-03-12T19:58:49.132Z,7.60
2023-03-12T20:01:16.935Z,7.13
2023-03-12T20:03:45.350Z,7.63
2023-03-12T20:06:13.558Z,8.05
2023-03-12T20:08:41.449Z,7.35
2023-03-12T20:11:10.518Z,9.18
2023-03-12T20:13:38.990Z,8.38
2023-03-12T20:16:07.814Z,8.30
2023-03-12T20:18:35.980Z,7.35
2023-03-12T20:21:05.843Z,9.00
2023-03-12T20:23:35.953Z,5.93
2023-03-12T20:26:04.005Z,10.07
2023-03-12T20:28:32.884Z,10.27
2023-03-12T20:31:14.552Z,8.13
2023-03-12T20:33:42.892Z,6.97
2023-03-12T20:36:17.184Z,8.25
2023-03-12T20:38:50.982Z,8.45
2023-03-12T20:41:21.534Z,8.02
2023-03-12T20:44:06.659Z,8.57
2023-03-12T20:46:54.771Z,7.00
2023-03-12T21:08:20.352Z,9.20
2023-03-12T21:10:48.904Z,9.40
2023-03-12T21:13:18.928Z,7.35
2023-03-12T21:16:20.869Z,7.88
2023-03-12T21:18:40.399Z,10.23
2023-03-12T21:38:51.045Z,9.20
2023-03-12T21:41:32.788Z,8.95
2023-03-12T21:48:19.848Z,9.05
2023-03-12T21:50:47.322Z,8.68
2023-03-12T21:53:23.475Z,10.98
2023-03-12T21:55:59.885Z,8.57
2023-03-12T21:58:28.718Z,10.55
2023-03-12T22:01:08.758Z,9.35
2023-03-12T22:03:36.636Z,9.25
2023-03-12T22:06:05.302Z,10.43
2023-03-12T22:08:33.800Z,9.40
2023-03-12T22:11:01.695Z,9.82
2023-03-12T22:13:29.391Z,10.23
2023-03-12T22:16:01.679Z,7.05
2023-03-12T22:18:29.929Z,8.75
2023-03-12T22:21:04.228Z,10.40
2023-03-12T22:23:32.057Z,8.45
2023-03-12T22:26:04.804Z,8.20
2023-03-12T22:28:33.109Z,7.65
2023-03-12T22:31:02.657Z,7.97
2023-03-12T22:33:30.894Z,11.55
2023-03-12T22:35:58.792Z,7.65
2023-03-12T22:38:28.669Z,7.18
2023-03-12T22:40:56.435Z,6.90
2023-03-12T22:43:26.944Z,8.30
2023-03-12T22:45:57.769Z,13.88
2023-03-12T22:48:25.412Z,7.50
2023-03-12T22:50:54.314Z,9.38
2023-03-12T22:53:22.085Z,8.57
2023-03-12T22:56:05.022Z,8.90
2023-03-12T22:58:32.876Z,10.00
2023-03-12T23:01:06.825Z,10.02
2023-03-12T23:03:36.225Z,10.13
2023-03-12T23:06:07.878Z,8.60
2023-03-12T23:08:35.597Z,8.52
2023-03-12T23:11:06.195Z,6.60
2023-03-12T23:13:36.348Z,7.25
2023-03-12T23:16:06.092Z,9.85
2023-03-12T23:18:34.828Z,7.90
2023-03-12T23:21:05.444Z,7.63
2023-03-12T23:23:33.816Z,8.88
2023-03-12T23:26:03.160Z,9.60
2023-03-12T23:28:31.609Z,8.38
2023-03-12T23:31:02.454Z,7.63
2023-03-12T23:33:31.115Z,10.05
2023-03-12T23:36:08.925Z,8.13
2023-03-12T23:38:37.688Z,9.40
2023-03-12T23:41:15.725Z,8.45
2023-03-12T23:43:44.251Z,8.05
2023-03-12T23:46:13.257Z,9.40
2023-03-12T23:48:40.976Z,6.75
2023-03-12T23:51:20.495Z,8.30
2023-03-12T23:53:50.996Z,7.93
2023-03-12T23:56:21.798Z,8.75
2023-03-12T23:58:51.172Z,9.45
